KIAH/IAH METAR and TAF weather

Enter ICAO airport designator
Station Type Date Time Source
KIAH METAR 2022/11/30 10:53 UTC NOAA

KIAH 301053Z 35014KT 10SM SCT019 13/07 A3009 RMK AO2 PK WND 33027/0955 SLP189 T01280067


Station Type Date Time Source
KIAH Decoded METAR 2022/11/30 10:53 UTC NOAA

HOUSTON INTERCONTINENTAL, TX, United States (KIAH) 30-00N 095-22W 36M
Nov 30, 2022 - 05:53 AM EST / 2022.11.30 1053 UTC
Wind: from the N (350 degrees) at 16 MPH (14 KT):0
Visibility: 10 mile(s):0
Sky conditions: partly cloudy
Temperature: 55.0 F (12.8 C)
Dew Point: 44.1 F (6.7 C)
Relative Humidity: 66%
Pressure (altimeter): 30.09 in. Hg (1018 hPa)
ob: KIAH 301053Z 35014KT 10SM SCT019 13/07 A3009 RMK AO2 PK WND 33027/0955 SLP189 T01280067
cycle: 11

Station Type Date Time Source
KIAH TAF 2022/11/30 12:22 UTC NOAA

TAF KIAH 301120Z 3012/0118 35017G26KT P6SM SKC
FM301600 02016G25KT P6SM SKC
FM010200 04008KT P6SM SKC
FM011400 08010KT P6SM FEW035

Example: see airport list